Zhe Pu Tuo 2012 — BKRA5 — position and weather

sailwx.info

Track history (hours):
 
Tides and Currents Weather Stations Pressure Air Temp Water Temp Dewpoint Dewpoint Depression Visibility Wind Speed Wind Dir Waves Ship Positions

Zhe Pu Tuo 2012

Last reported at 2016-Aug-24 15:33 UTC. Time now 2016-Aug-26 03:12 UTC.
Position N 38°58' E 117°47'.

Length 57 m; draft 3.7 m.

Type: Tug. MMSI: 412763040.

Date/timePositionNaut miles runAvg speedWind from/ knotsBaromVisibWave heightAir tempDewpointWater temp
2016-Aug-24 15:33N 38°58' E 117°47'3 2.5
2016-Aug-24 14:28N 38°59' E 117°44'0 0.0
2016-Aug-24 13:28N 38°59' E 117°44'0 0.0
2016-Aug-24 12:28N 38°59' E 117°44'0 0.0
2016-Aug-24 11:22N 38°59' E 117°44'0 0.0
2016-Aug-24 10:28N 38°59' E 117°44'0 0.0
2016-Aug-24 09:16N 38°59' E 117°44'0 0.0
2016-Aug-24 08:22N 38°59' E 117°44'0 0.0
2016-Aug-24 07:22N 38°59' E 117°44'0 0.0
2016-Aug-24 06:28N 38°59' E 117°44'0 0.0
2016-Aug-24 04:28N 38°59' E 117°44'0 0.0
2016-Aug-24 03:28N 38°59' E 117°44'0 0.0
2016-Aug-24 02:33N 38°59' E 117°44'0 0.2
2016-Aug-24 01:28N 38°59' E 117°43'0 0.0
2016-Aug-24 00:28N 38°59' E 117°43'0 0.0
2016-Aug-23 23:28N 38°59' E 117°43'0 0.0
2016-Aug-23 22:28N 38°59' E 117°43'0 0.0
2016-Aug-23 21:28N 38°59' E 117°43'0 0.0
2016-Aug-23 20:28N 38°59' E 117°43'0 0.0
2016-Aug-23 19:28N 38°59' E 117°43'0 0.0
2016-Aug-23 18:28N 38°59' E 117°43'0 0.0
2016-Aug-23 17:22N 38°59' E 117°43'0 0.0
2016-Aug-23 16:22N 38°59' E 117°43'0 0.0
2016-Aug-23 15:16N 38°59' E 117°43'0 0.0
2016-Aug-23 14:22N 38°59' E 117°43'0 0.0
2016-Aug-23 13:28N 38°59' E 117°43'0 0.0
2016-Aug-23 12:22N 38°59' E 117°43'0 0.0
2016-Aug-23 11:28N 38°59' E 117°43'0 0.0
2016-Aug-23 10:22N 38°59' E 117°43'0 0.0
2016-Aug-23 09:28N 38°59' E 117°43'0 0.0
2016-Aug-23 08:28N 38°59' E 117°43'0 0.0
2016-Aug-23 07:28N 38°59' E 117°43'0 0.0
2016-Aug-23 06:28N 38°59' E 117°43'0 0.0
2016-Aug-23 05:28N 38°59' E 117°43'0 0.0
2016-Aug-23 04:28N 38°59' E 117°43'0 0.0
2016-Aug-23 03:28N 38°59' E 117°43'0 0.0
2016-Aug-23 02:28N 38°59' E 117°43'0 0.2
2016-Aug-23 01:33N 38°59' E 117°44'0 0.0
2016-Aug-23 00:28N 38°59' E 117°44'0 0.0
2016-Aug-22 23:28N 38°59' E 117°44'0 0.0
2016-Aug-22 22:28N 38°59' E 117°44'0 0.0
2016-Aug-22 21:16N 38°59' E 117°44'0 0.0
2016-Aug-22 20:28N 38°59' E 117°44'0 0.0
2016-Aug-22 19:28N 38°59' E 117°44'0 0.0
2016-Aug-22 18:28N 38°59' E 117°44'0 0.0
2016-Aug-22 17:28N 38°59' E 117°44'0 0.0
2016-Aug-22 16:29N 38°59' E 117°44'3 3.1
2016-Aug-22 15:33N 38°58' E 117°47'7 5.8
2016-Aug-22 14:23N 38°56' E 117°55'  
2016-Aug-16 04:26N 38°57' E 117°51'6 6.9
2016-Aug-16 03:33N 38°59' E 117°43'0 0.0
2016-Aug-16 02:32N 38°59' E 117°43'0 0.0
2016-Aug-16 01:32N 38°59' E 117°43'0 0.0
2016-Aug-16 00:32N 38°59' E 117°43'0 0.0
2016-Aug-15 23:26N 38°59' E 117°43'0 0.0
2016-Aug-15 22:32N 38°59' E 117°43'0 0.0
2016-Aug-15 21:32N 38°59' E 117°43'0 0.0
2016-Aug-15 20:32N 38°59' E 117°43'0 0.0
2016-Aug-15 19:32N 38°59' E 117°43'0 0.0
2016-Aug-15 18:32N 38°59' E 117°43'0 0.0
2016-Aug-15 17:32N 38°59' E 117°43'0 0.0
2016-Aug-15 16:32N 38°59' E 117°43'0 0.0
2016-Aug-15 15:32N 38°59' E 117°43'0 0.0
2016-Aug-15 14:26N 38°59' E 117°43'0 0.0
2016-Aug-15 13:32N 38°59' E 117°43'0 0.0
2016-Aug-15 12:32N 38°59' E 117°43'0 0.0
2016-Aug-15 11:33N 38°59' E 117°43'1 0.5
2016-Aug-15 10:33N 38°59' E 117°44'0 0.0
2016-Aug-15 09:33N 38°59' E 117°44'0 0.0
2016-Aug-15 08:33N 38°59' E 117°44'0 0.3
2016-Aug-15 07:33N 38°59' E 117°44'0 0.0
2016-Aug-15 06:33N 38°59' E 117°44'0 0.2
2016-Aug-15 04:29N 38°59' E 117°43'0 0.0
2016-Aug-15 03:29N 38°59' E 117°43'0 0.0
2016-Aug-15 02:29N 38°59' E 117°43'0 0.0
2016-Aug-15 01:29N 38°59' E 117°43'0 0.0
2016-Aug-15 00:29N 38°59' E 117°43'0 0.0
2016-Aug-14 23:29N 38°59' E 117°43'0 0.0
2016-Aug-14 22:23N 38°59' E 117°43'0 0.0
2016-Aug-14 21:29N 38°59' E 117°43'0 0.0
2016-Aug-14 20:29N 38°59' E 117°43'0 0.0
2016-Aug-14 19:29N 38°59' E 117°43'0 0.0
2016-Aug-14 18:29N 38°59' E 117°43'0 0.0
2016-Aug-14 17:29N 38°59' E 117°43'0 0.0
2016-Aug-14 16:29N 38°59' E 117°43'  
Track history (hours):
 
Tides and Currents Weather Stations Pressure Air Temp Water Temp Dewpoint Dewpoint Depression Visibility Wind Speed Wind Dir Waves Ship Positions

Zhe Pu Tuo 2012

Last reported at 2016-Aug-24 15:33 UTC. Time now 2016-Aug-26 03:12 UTC.
Position N 38°58' E 117°47'.

Length 57 m; draft 3.7 m.

Type: Tug. MMSI: 412763040.

Date/timePositionNaut miles runAvg speedWind from/ knotsBaromVisibWave heightAir tempDewpointWater temp
2016-Aug-24 15:33N 38°58' E 117°47'3 2.5
2016-Aug-24 14:28N 38°59' E 117°44'0 0.0
2016-Aug-24 13:28N 38°59' E 117°44'0 0.0
2016-Aug-24 12:28N 38°59' E 117°44'0 0.0
2016-Aug-24 11:22N 38°59' E 117°44'0 0.0
2016-Aug-24 10:28N 38°59' E 117°44'0 0.0
2016-Aug-24 09:16N 38°59' E 117°44'0 0.0
2016-Aug-24 08:22N 38°59' E 117°44'0 0.0
2016-Aug-24 07:22N 38°59' E 117°44'0 0.0
2016-Aug-24 06:28N 38°59' E 117°44'0 0.0
2016-Aug-24 04:28N 38°59' E 117°44'0 0.0
2016-Aug-24 03:28N 38°59' E 117°44'0 0.0
2016-Aug-24 02:33N 38°59' E 117°44'0 0.2
2016-Aug-24 01:28N 38°59' E 117°43'0 0.0
2016-Aug-24 00:28N 38°59' E 117°43'0 0.0
2016-Aug-23 23:28N 38°59' E 117°43'0 0.0
2016-Aug-23 22:28N 38°59' E 117°43'0 0.0
2016-Aug-23 21:28N 38°59' E 117°43'0 0.0
2016-Aug-23 20:28N 38°59' E 117°43'0 0.0
2016-Aug-23 19:28N 38°59' E 117°43'0 0.0
2016-Aug-23 18:28N 38°59' E 117°43'0 0.0
2016-Aug-23 17:22N 38°59' E 117°43'0 0.0
2016-Aug-23 16:22N 38°59' E 117°43'0 0.0
2016-Aug-23 15:16N 38°59' E 117°43'0 0.0
2016-Aug-23 14:22N 38°59' E 117°43'0 0.0
2016-Aug-23 13:28N 38°59' E 117°43'0 0.0
2016-Aug-23 12:22N 38°59' E 117°43'0 0.0
2016-Aug-23 11:28N 38°59' E 117°43'0 0.0
2016-Aug-23 10:22N 38°59' E 117°43'0 0.0
2016-Aug-23 09:28N 38°59' E 117°43'0 0.0
2016-Aug-23 08:28N 38°59' E 117°43'0 0.0
2016-Aug-23 07:28N 38°59' E 117°43'0 0.0
2016-Aug-23 06:28N 38°59' E 117°43'0 0.0
2016-Aug-23 05:28N 38°59' E 117°43'0 0.0
2016-Aug-23 04:28N 38°59' E 117°43'0 0.0
2016-Aug-23 03:28N 38°59' E 117°43'0 0.0
2016-Aug-23 02:28N 38°59' E 117°43'0 0.2
2016-Aug-23 01:33N 38°59' E 117°44'0 0.0
2016-Aug-23 00:28N 38°59' E 117°44'0 0.0
2016-Aug-22 23:28N 38°59' E 117°44'0 0.0
2016-Aug-22 22:28N 38°59' E 117°44'0 0.0
2016-Aug-22 21:16N 38°59' E 117°44'0 0.0
2016-Aug-22 20:28N 38°59' E 117°44'0 0.0
2016-Aug-22 19:28N 38°59' E 117°44'0 0.0
2016-Aug-22 18:28N 38°59' E 117°44'0 0.0
2016-Aug-22 17:28N 38°59' E 117°44'0 0.0
2016-Aug-22 16:29N 38°59' E 117°44'3 3.1
2016-Aug-22 15:33N 38°58' E 117°47'7 5.8
2016-Aug-22 14:23N 38°56' E 117°55'  
2016-Aug-16 04:26N 38°57' E 117°51'6 6.9
2016-Aug-16 03:33N 38°59' E 117°43'0 0.0
2016-Aug-16 02:32N 38°59' E 117°43'0 0.0
2016-Aug-16 01:32N 38°59' E 117°43'0 0.0
2016-Aug-16 00:32N 38°59' E 117°43'0 0.0
2016-Aug-15 23:26N 38°59' E 117°43'0 0.0
2016-Aug-15 22:32N 38°59' E 117°43'0 0.0
2016-Aug-15 21:32N 38°59' E 117°43'0 0.0
2016-Aug-15 20:32N 38°59' E 117°43'0 0.0
2016-Aug-15 19:32N 38°59' E 117°43'0 0.0
2016-Aug-15 18:32N 38°59' E 117°43'0 0.0
2016-Aug-15 17:32N 38°59' E 117°43'0 0.0
2016-Aug-15 16:32N 38°59' E 117°43'0 0.0
2016-Aug-15 15:32N 38°59' E 117°43'0 0.0
2016-Aug-15 14:26N 38°59' E 117°43'0 0.0
2016-Aug-15 13:32N 38°59' E 117°43'0 0.0
2016-Aug-15 12:32N 38°59' E 117°43'0 0.0
2016-Aug-15 11:33N 38°59' E 117°43'1 0.5
2016-Aug-15 10:33N 38°59' E 117°44'0 0.0
2016-Aug-15 09:33N 38°59' E 117°44'0 0.0
2016-Aug-15 08:33N 38°59' E 117°44'0 0.3
2016-Aug-15 07:33N 38°59' E 117°44'0 0.0
2016-Aug-15 06:33N 38°59' E 117°44'0 0.2
2016-Aug-15 04:29N 38°59' E 117°43'0 0.0
2016-Aug-15 03:29N 38°59' E 117°43'0 0.0
2016-Aug-15 02:29N 38°59' E 117°43'0 0.0
2016-Aug-15 01:29N 38°59' E 117°43'0 0.0
2016-Aug-15 00:29N 38°59' E 117°43'0 0.0
2016-Aug-14 23:29N 38°59' E 117°43'0 0.0
2016-Aug-14 22:23N 38°59' E 117°43'0 0.0
2016-Aug-14 21:29N 38°59' E 117°43'0 0.0
2016-Aug-14 20:29N 38°59' E 117°43'0 0.0
2016-Aug-14 19:29N 38°59' E 117°43'0 0.0
2016-Aug-14 18:29N 38°59' E 117°43'0 0.0
2016-Aug-14 17:29N 38°59' E 117°43'0 0.0
2016-Aug-14 16:29N 38°59' E 117°43'  

Dump ship's entire track history